sensor_id;sensor_type;location;lat;lon;timestamp;pressure;altitude;pressure_sealevel;temperature;humidity
35443;BME280;21561;55.654;37.592;2022-07-29T00:00:14;99370.69;;;16.01;95.86
35443;BME280;21561;55.654;37.592;2022-07-29T00:02:41;99381.16;;;16.01;95.28
35443;BME280;21561;55.654;37.592;2022-07-29T00:05:08;99374.28;;;15.97;95.39
35443;BME280;21561;55.654;37.592;2022-07-29T00:07:36;99374.41;;;15.94;95.35
35443;BME280;21561;55.654;37.592;2022-07-29T00:10:03;99377.94;;;15.93;94.75
35443;BME280;21561;55.654;37.592;2022-07-29T00:12:30;99364.84;;;15.93;93.96
35443;BME280;21561;55.654;37.592;2022-07-29T00:14:57;99379.97;;;15.84;94.03
35443;BME280;21561;55.654;37.592;2022-07-29T00:17:25;99365.19;;;15.82;93.81
35443;BME280;21561;55.654;37.592;2022-07-29T00:19:52;99384.47;;;15.79;94.15
35443;BME280;21561;55.654;37.592;2022-07-29T00:22:19;99376.78;;;15.73;94.37
35443;BME280;21561;55.654;37.592;2022-07-29T00:24:47;99382.09;;;15.70;94.60
35443;BME280;21561;55.654;37.592;2022-07-29T00:27:15;99385.03;;;15.61;95.62
35443;BME280;21561;55.654;37.592;2022-07-29T00:29:42;99388.56;;;15.60;95.50
35443;BME280;21561;55.654;37.592;2022-07-29T00:32:09;99393.06;;;15.55;96.03
35443;BME280;21561;55.654;37.592;2022-07-29T00:34:39;99389.66;;;15.53;96.04
35443;BME280;21561;55.654;37.592;2022-07-29T00:37:25;99393.47;;;15.42;97.06
35443;BME280;21561;55.654;37.592;2022-07-29T00:39:52;99384.91;;;15.37;96.94
35443;BME280;21561;55.654;37.592;2022-07-29T00:42:24;99389.28;;;15.37;97.65
35443;BME280;21561;55.654;37.592;2022-07-29T00:44:51;99390.22;;;15.34;96.96
35443;BME280;21561;55.654;37.592;2022-07-29T00:47:18;99392.13;;;15.29;97.48
35443;BME280;21561;55.654;37.592;2022-07-29T00:49:45;99408.72;;;15.28;97.20
35443;BME280;21561;55.654;37.592;2022-07-29T00:52:12;99400.91;;;15.26;97.48
35443;BME280;21561;55.654;37.592;2022-07-29T00:54:42;99407.09;;;15.24;97.85
35443;BME280;21561;55.654;37.592;2022-07-29T00:57:11;99403.59;;;15.23;96.69
35443;BME280;21561;55.654;37.592;2022-07-29T00:59:40;99404.56;;;15.21;98.57
35443;BME280;21561;55.654;37.592;2022-07-29T01:02:07;99411.69;;;15.16;98.70
35443;BME280;21561;55.654;37.592;2022-07-29T01:04:34;99412.59;;;15.15;98.38
35443;BME280;21561;55.654;37.592;2022-07-29T01:07:02;99413.56;;;15.11;98.49
35443;BME280;21561;55.654;37.592;2022-07-29T01:09:32;99413.50;;;15.14;98.55
35443;BME280;21561;55.654;37.592;2022-07-29T01:12:19;99411.75;;;15.13;98.05
35443;BME280;21561;55.654;37.592;2022-07-29T01:14:48;99411.16;;;15.04;97.67
35443;BME280;21561;55.654;37.592;2022-07-29T01:17:33;99418.84;;;15.09;98.65
35443;BME280;21561;55.654;37.592;2022-07-29T01:31:11;99421.19;;;14.88;98.19
35443;BME280;21561;55.654;37.592;2022-07-29T01:33:57;99412.50;;;14.88;98.31
35443;BME280;21561;55.654;37.592;2022-07-29T01:36:47;99418.50;;;14.92;98.47
35443;BME280;21561;55.654;37.592;2022-07-29T01:41:58;99416.94;;;14.84;97.82
35443;BME280;21561;55.654;37.592;2022-07-29T01:44:31;99419.69;;;14.80;97.98
35443;BME280;21561;55.654;37.592;2022-07-29T01:47:03;99423.22;;;14.79;97.71
35443;BME280;21561;55.654;37.592;2022-07-29T01:49:35;99423.28;;;14.76;98.31
35443;BME280;21561;55.654;37.592;2022-07-29T01:52:15;99429.31;;;14.78;97.99
35443;BME280;21561;55.654;37.592;2022-07-29T01:54:52;99423.28;;;14.76;98.51
35443;BME280;21561;55.654;37.592;2022-07-29T01:57:26;99431.19;;;14.73;98.50
35443;BME280;21561;55.654;37.592;2022-07-29T02:00:00;99414.78;;;14.67;98.93
35443;BME280;21561;55.654;37.592;2022-07-29T02:02:30;99420.03;;;14.67;99.60
35443;BME280;21561;55.654;37.592;2022-07-29T02:05:00;99424.50;;;14.62;100.00
35443;BME280;21561;55.654;37.592;2022-07-29T02:07:31;99420.19;;;14.61;100.00
35443;BME280;21561;55.654;37.592;2022-07-29T02:10:12;99426.22;;;14.63;100.00
35443;BME280;21561;55.654;37.592;2022-07-29T02:12:40;99422.84;;;14.60;100.00
35443;BME280;21561;55.654;37.592;2022-07-29T02:15:35;99425.53;;;14.55;100.00
35443;BME280;21561;55.654;37.592;2022-07-29T02:18:23;99420.28;;;14.57;100.00
35443;BME280;21561;55.654;37.592;2022-07-29T02:20:53;99426.50;;;14.52;100.00
35443;BME280;21561;55.654;37.592;2022-07-29T02:23:23;99428.31;;;14.49;100.00
35443;BME280;21561;55.654;37.592;2022-07-29T02:25:53;99436.22;;;14.46;100.00
35443;BME280;21561;55.654;37.592;2022-07-29T02:28:23;99431.94;;;14.45;100.00
35443;BME280;21561;55.654;37.592;2022-07-29T02:30:55;99437.00;;;14.49;100.00
35443;BME280;21561;55.654;37.592;2022-07-29T02:33:26;99437.97;;;14.47;100.00
35443;BME280;21561;55.654;37.592;2022-07-29T02:35:54;99443.19;;;14.47;100.00
35443;BME280;21561;55.654;37.592;2022-07-29T02:38:23;99445.75;;;14.48;100.00
35443;BME280;21561;55.654;37.592;2022-07-29T02:41:13;99441.31;;;14.52;100.00
35443;BME280;21561;55.654;37.592;2022-07-29T02:43:43;99422.13;;;14.53;100.00
35443;BME280;21561;55.654;37.592;2022-07-29T02:46:17;99435.06;;;14.59;100.00
35443;BME280;21561;55.654;37.592;2022-07-29T02:49:18;99435.03;;;14.61;100.00
35443;BME280;21561;55.654;37.592;2022-07-29T02:51:58;99427.97;;;14.64;99.73
35443;BME280;21561;55.654;37.592;2022-07-29T02:54:33;99435.69;;;14.67;99.55
35443;BME280;21561;55.654;37.592;2022-07-29T02:57:20;99431.13;;;14.76;99.40
35443;BME280;21561;55.654;37.592;2022-07-29T02:59:51;99432.78;;;14.78;98.22
35443;BME280;21561;55.654;37.592;2022-07-29T03:02:20;99442.19;;;14.84;97.06
35443;BME280;21561;55.654;37.592;2022-07-29T03:04:48;99442.13;;;14.87;97.46
35443;BME280;21561;55.654;37.592;2022-07-29T03:07:18;99426.38;;;14.90;97.08
35443;BME280;21561;55.654;37.592;2022-07-29T03:09:47;99431.50;;;14.93;96.33
35443;BME280;21561;55.654;37.592;2022-07-29T03:12:14;99439.97;;;15.01;95.94
35443;BME280;21561;55.654;37.592;2022-07-29T03:14:43;99436.47;;;15.02;94.78
35443;BME280;21561;55.654;37.592;2022-07-29T03:17:10;99423.19;;;15.10;94.57
35443;BME280;21561;55.654;37.592;2022-07-29T03:19:38;99426.56;;;15.14;94.39
35443;BME280;21561;55.654;37.592;2022-07-29T03:22:05;99424.66;;;15.19;94.54
35443;BME280;21561;55.654;37.592;2022-07-29T03:24:34;99423.59;;;15.26;93.83
35443;BME280;21561;55.654;37.592;2022-07-29T03:27:03;99433.97;;;15.29;94.07
35443;BME280;21561;55.654;37.592;2022-07-29T03:29:30;99427.72;;;15.33;93.48
35443;BME280;21561;55.654;37.592;2022-07-29T03:32:02;99429.22;;;15.42;93.10
35443;BME280;21561;55.654;37.592;2022-07-29T03:34:32;99429.97;;;15.45;92.82
35443;BME280;21561;55.654;37.592;2022-07-29T03:37:00;99428.09;;;15.51;92.59
35443;BME280;21561;55.654;37.592;2022-07-29T03:39:29;99433.06;;;15.58;91.75
35443;BME280;21561;55.654;37.592;2022-07-29T03:42:01;99434.84;;;15.58;91.77
35443;BME280;21561;55.654;37.592;2022-07-29T03:44:28;99421.59;;;15.62;91.69
35443;BME280;21561;55.654;37.592;2022-07-29T03:46:59;99437.13;;;15.69;91.43
35443;BME280;21561;55.654;37.592;2022-07-29T03:49:29;99439.56;;;15.73;90.93
35443;BME280;21561;55.654;37.592;2022-07-29T03:51:57;99437.69;;;15.78;90.41
35443;BME280;21561;55.654;37.592;2022-07-29T03:54:27;99432.97;;;15.90;90.50
35443;BME280;21561;55.654;37.592;2022-07-29T03:56:54;99439.94;;;15.91;89.47
35443;BME280;21561;55.654;37.592;2022-07-29T03:59:22;99440.72;;;15.93;89.38
35443;BME280;21561;55.654;37.592;2022-07-29T04:01:49;99446.75;;;15.95;89.10
35443;BME280;21561;55.654;37.592;2022-07-29T04:04:17;99447.56;;;15.97;88.32
35443;BME280;21561;55.654;37.592;2022-07-29T04:06:46;99449.19;;;16.01;87.88
35443;BME280;21561;55.654;37.592;2022-07-29T04:09:14;99445.78;;;15.99;87.92
35443;BME280;21561;55.654;37.592;2022-07-29T04:11:44;99450.88;;;16.02;87.24
35443;BME280;21561;55.654;37.592;2022-07-29T04:14:31;99457.75;;;16.06;86.88
35443;BME280;21561;55.654;37.592;2022-07-29T04:17:00;99451.50;;;16.10;86.91
35443;BME280;21561;55.654;37.592;2022-07-29T04:19:35;99457.44;;;16.15;86.92
35443;BME280;21561;55.654;37.592;2022-07-29T04:22:02;99452.00;;;16.21;86.65
35443;BME280;21561;55.654;37.592;2022-07-29T04:24:29;99452.03;;;16.20;86.04
35443;BME280;21561;55.654;37.592;2022-07-29T04:26:55;99461.75;;;16.16;86.25
35443;BME280;21561;55.654;37.592;2022-07-29T04:29:22;99468.91;;;16.11;86.34
35443;BME280;21561;55.654;37.592;2022-07-29T04:31:49;99471.66;;;16.08;86.90
35443;BME280;21561;55.654;37.592;2022-07-29T04:34:16;99461.28;;;16.05;86.74
35443;BME280;21561;55.654;37.592;2022-07-29T04:36:44;99473.56;;;16.03;86.61
35443;BME280;21561;55.654;37.592;2022-07-29T04:39:14;99468.41;;;16.00;87.15
35443;BME280;21561;55.654;37.592;2022-07-29T04:41:48;99475.38;;;16.01;87.12
35443;BME280;21561;55.654;37.592;2022-07-29T04:44:15;99476.13;;;16.05;87.18
35443;BME280;21561;55.654;37.592;2022-07-29T04:46:44;99469.63;;;16.16;86.57
35443;BME280;21561;55.654;37.592;2022-07-29T04:49:11;99471.16;;;16.22;86.56
35443;BME280;21561;55.654;37.592;2022-07-29T04:51:38;99483.41;;;16.21;84.76
35443;BME280;21561;55.654;37.592;2022-07-29T04:54:07;99479.94;;;16.21;85.27
35443;BME280;21561;55.654;37.592;2022-07-29T04:56:34;99471.94;;;16.26;84.97
35443;BME280;21561;55.654;37.592;2022-07-29T04:59:01;99472.59;;;16.32;84.59
35443;BME280;21561;55.654;37.592;2022-07-29T05:01:28;99462.81;;;16.37;84.30
35443;BME280;21561;55.654;37.592;2022-07-29T05:03:55;99470.53;;;16.42;85.22
35443;BME280;21561;55.654;37.592;2022-07-29T05:06:26;99468.50;;;16.50;84.87
35443;BME280;21561;55.654;37.592;2022-07-29T05:08:53;99479.97;;;16.46;83.47
35443;BME280;21561;55.654;37.592;2022-07-29T05:11:20;99486.34;;;16.39;83.48
35443;BME280;21561;55.654;37.592;2022-07-29T05:13:52;99473.25;;;16.39;83.98
35443;BME280;21561;55.654;37.592;2022-07-29T05:16:19;99466.88;;;16.46;84.48
35443;BME280;21561;55.654;37.592;2022-07-29T05:18:46;99487.53;;;16.55;84.65
35443;BME280;21561;55.654;37.592;2022-07-29T05:21:13;99484.00;;;16.56;83.61
35443;BME280;21561;55.654;37.592;2022-07-29T05:23:40;99486.72;;;16.53;83.46
35443;BME280;21561;55.654;37.592;2022-07-29T05:26:07;99482.19;;;16.58;83.92
35443;BME280;21561;55.654;37.592;2022-07-29T05:28:34;99473.81;;;16.72;83.96
35443;BME280;21561;55.654;37.592;2022-07-29T05:31:04;99477.38;;;16.71;83.95
35443;BME280;21561;55.654;37.592;2022-07-29T05:33:34;99480.84;;;16.72;84.20
35443;BME280;21561;55.654;37.592;2022-07-29T05:36:04;99477.28;;;16.74;83.94
35443;BME280;21561;55.654;37.592;2022-07-29T05:38:36;99471.16;;;16.74;83.52
35443;BME280;21561;55.654;37.592;2022-07-29T05:41:04;99491.31;;;16.72;83.38
35443;BME280;21561;55.654;37.592;2022-07-29T05:43:34;99486.88;;;16.74;82.95
35443;BME280;21561;55.654;37.592;2022-07-29T05:46:02;99469.19;;;16.80;83.01
35443;BME280;21561;55.654;37.592;2022-07-29T05:48:29;99481.13;;;16.89;82.16
35443;BME280;21561;55.654;37.592;2022-07-29T05:50:56;99472.34;;;16.90;81.71
35443;BME280;21561;55.654;37.592;2022-07-29T05:53:22;99479.22;;;16.94;81.69
35443;BME280;21561;55.654;37.592;2022-07-29T05:55:50;99484.28;;;16.99;80.33
35443;BME280;21561;55.654;37.592;2022-07-29T05:58:17;99471.00;;;17.04;79.52
35443;BME280;21561;55.654;37.592;2022-07-29T06:00:44;99465.47;;;17.11;79.63
35443;BME280;21561;55.654;37.592;2022-07-29T06:03:11;99467.16;;;17.14;79.97
35443;BME280;21561;55.654;37.592;2022-07-29T06:05:39;99462.47;;;17.22;80.03
35443;BME280;21561;55.654;37.592;2022-07-29T06:08:06;99484.81;;;17.32;79.33
35443;BME280;21561;55.654;37.592;2022-07-29T06:10:37;99491.75;;;17.33;77.92
35443;BME280;21561;55.654;37.592;2022-07-29T06:13:04;99477.97;;;17.28;76.83
35443;BME280;21561;55.654;37.592;2022-07-29T06:15:31;99466.41;;;17.34;77.76
35443;BME280;21561;55.654;37.592;2022-07-29T06:17:58;99459.72;;;17.49;77.86
35443;BME280;21561;55.654;37.592;2022-07-29T06:20:28;99461.81;;;17.63;77.20
35443;BME280;21561;55.654;37.592;2022-07-29T06:22:59;99463.91;;;17.77;77.06
35443;BME280;21561;55.654;37.592;2022-07-29T06:25:27;99458.38;;;17.83;75.10
35443;BME280;21561;55.654;37.592;2022-07-29T06:27:57;99467.06;;;17.85;74.94
35443;BME280;21561;55.654;37.592;2022-07-29T06:30:24;99471.56;;;17.81;74.53
35443;BME280;21561;55.654;37.592;2022-07-29T06:32:51;99460.00;;;17.87;73.65
35443;BME280;21561;55.654;37.592;2022-07-29T06:35:18;99458.97;;;17.91;73.99
35443;BME280;21561;55.654;37.592;2022-07-29T06:38:05;99462.91;;;18.01;74.07
35443;BME280;21561;55.654;37.592;2022-07-29T06:40:52;99466.72;;;18.16;73.08
35443;BME280;21561;55.654;37.592;2022-07-29T06:43:35;99456.66;;;18.26;71.05
35443;BME280;21561;55.654;37.592;2022-07-29T06:46:21;99456.28;;;18.35;69.11
35443;BME280;21561;55.654;37.592;2022-07-29T06:48:49;99463.38;;;18.33;69.24
35443;BME280;21561;55.654;37.592;2022-07-29T06:51:17;99463.50;;;18.30;69.55
35443;BME280;21561;55.654;37.592;2022-07-29T06:53:50;99451.97;;;18.34;69.95
35443;BME280;21561;55.654;37.592;2022-07-29T06:56:30;99458.66;;;18.41;67.61
35443;BME280;21561;55.654;37.592;2022-07-29T06:59:06;99455.88;;;18.44;67.87
35443;BME280;21561;55.654;37.592;2022-07-29T07:01:34;99457.34;;;18.51;66.29
35443;BME280;21561;55.654;37.592;2022-07-29T07:04:01;99462.34;;;18.58;67.10
35443;BME280;21561;55.654;37.592;2022-07-29T07:06:28;99436.63;;;18.64;66.45
35443;BME280;21561;55.654;37.592;2022-07-29T07:08:55;99461.66;;;18.73;65.52
35443;BME280;21561;55.654;37.592;2022-07-29T07:11:22;99450.63;;;18.85;66.17
35443;BME280;21561;55.654;37.592;2022-07-29T07:13:49;99451.81;;;18.99;65.64
35443;BME280;21561;55.654;37.592;2022-07-29T07:16:16;99452.38;;;19.05;64.17
35443;BME280;21561;55.654;37.592;2022-07-29T07:18:45;99454.81;;;19.10;63.72
35443;BME280;21561;55.654;37.592;2022-07-29T07:21:12;99458.03;;;19.17;63.49
35443;BME280;21561;55.654;37.592;2022-07-29T07:23:45;99461.63;;;19.14;63.22
35443;BME280;21561;55.654;37.592;2022-07-29T07:26:13;99458.22;;;19.12;61.28
35443;BME280;21561;55.654;37.592;2022-07-29T07:28:40;99448.47;;;19.14;60.87
35443;BME280;21561;55.654;37.592;2022-07-29T07:31:06;99447.97;;;19.25;60.93
35443;BME280;21561;55.654;37.592;2022-07-29T07:33:33;99454.84;;;19.29;62.14
35443;BME280;21561;55.654;37.592;2022-07-29T07:36:00;99455.69;;;19.30;60.90
35443;BME280;21561;55.654;37.592;2022-07-29T07:38:27;99450.28;;;19.33;59.60
35443;BME280;21561;55.654;37.592;2022-07-29T07:40:54;99436.31;;;19.31;58.58
35443;BME280;21561;55.654;37.592;2022-07-29T07:43:21;99436.06;;;19.37;58.33
35443;BME280;21561;55.654;37.592;2022-07-29T07:45:49;99433.75;;;19.48;58.78
35443;BME280;21561;55.654;37.592;2022-07-29T07:48:16;99437.03;;;19.53;58.00
35443;BME280;21561;55.654;37.592;2022-07-29T07:50:43;99428.06;;;19.57;56.92
35443;BME280;21561;55.654;37.592;2022-07-29T07:53:10;99434.72;;;19.64;57.45
35443;BME280;21561;55.654;37.592;2022-07-29T07:55:41;99429.69;;;19.79;57.03
35443;BME280;21561;55.654;37.592;2022-07-29T07:58:28;99446.44;;;19.95;57.36
35443;BME280;21561;55.654;37.592;2022-07-29T08:00:55;99420.59;;;20.03;55.78
35443;BME280;21561;55.654;37.592;2022-07-29T08:03:22;99437.41;;;20.01;55.26
35443;BME280;21561;55.654;37.592;2022-07-29T08:05:52;99447.66;;;19.88;55.39
35443;BME280;21561;55.654;37.592;2022-07-29T08:08:23;99446.53;;;19.94;55.54
35443;BME280;21561;55.654;37.592;2022-07-29T08:10:50;99441.53;;;20.07;55.94
35443;BME280;21561;55.654;37.592;2022-07-29T08:13:21;99444.47;;;20.18;55.15
35443;BME280;21561;55.654;37.592;2022-07-29T08:15:48;99437.75;;;20.30;54.88
35443;BME280;21561;55.654;37.592;2022-07-29T08:18:25;99424.31;;;20.34;53.75
35443;BME280;21561;55.654;37.592;2022-07-29T08:20:53;99368.22;;;20.32;51.47
35443;BME280;21561;55.654;37.592;2022-07-29T08:23:20;99362.94;;;20.32;50.57
35443;BME280;21561;55.654;37.592;2022-07-29T08:25:48;99395.03;;;20.40;53.10
35443;BME280;21561;55.654;37.592;2022-07-29T08:28:16;99369.06;;;20.33;50.79
35443;BME280;21561;55.654;37.592;2022-07-29T08:30:43;99381.53;;;20.29;51.13
35443;BME280;21561;55.654;37.592;2022-07-29T08:33:10;99393.88;;;20.29;51.37
35443;BME280;21561;55.654;37.592;2022-07-29T08:35:38;99411.28;;;20.31;52.21
35443;BME280;21561;55.654;37.592;2022-07-29T08:38:05;99386.66;;;20.32;50.97
35443;BME280;21561;55.654;37.592;2022-07-29T08:40:32;99374.41;;;20.31;51.13
35443;BME280;21561;55.654;37.592;2022-07-29T08:43:04;99401.53;;;20.33;50.72
35443;BME280;21561;55.654;37.592;2022-07-29T08:45:43;99332.25;;;20.31;48.70
35443;BME280;21561;55.654;37.592;2022-07-29T08:48:19;99374.53;;;20.46;50.65
35443;BME280;21561;55.654;37.592;2022-07-29T08:50:48;99368.69;;;20.74;50.04
35443;BME280;21561;55.654;37.592;2022-07-29T08:53:17;99364.81;;;20.97;49.27
35443;BME280;21561;55.654;37.592;2022-07-29T08:55:47;99310.34;;;20.96;47.62
35443;BME280;21561;55.654;37.592;2022-07-29T08:58:14;99294.72;;;20.77;48.30
35443;BME280;21561;55.654;37.592;2022-07-29T09:00:50;99348.66;;;20.87;49.26
35443;BME280;21561;55.654;37.592;2022-07-29T09:03:24;99366.53;;;20.98;48.99
35443;BME280;21561;55.654;37.592;2022-07-29T09:05:51;99280.59;;;20.94;46.61
35443;BME280;21561;55.654;37.592;2022-07-29T09:08:19;99270.56;;;21.01;47.23
35443;BME280;21561;55.654;37.592;2022-07-29T09:10:46;99303.91;;;21.02;47.84
35443;BME280;21561;55.654;37.592;2022-07-29T09:13:13;99290.97;;;20.97;47.37
35443;BME280;21561;55.654;37.592;2022-07-29T09:15:40;99317.34;;;20.97;47.83
35443;BME280;21561;55.654;37.592;2022-07-29T09:18:07;99310.72;;;20.90;47.49
35443;BME280;21561;55.654;37.592;2022-07-29T09:20:54;99347.78;;;20.87;48.60
35443;BME280;21561;55.654;37.592;2022-07-29T09:23:39;99356.03;;;20.81;48.21
35443;BME280;21561;55.654;37.592;2022-07-29T09:26:08;99373.13;;;20.73;48.33
35443;BME280;21561;55.654;37.592;2022-07-29T09:28:41;99389.25;;;20.67;49.12
35443;BME280;21561;55.654;37.592;2022-07-29T09:31:08;99388.34;;;20.68;48.65
35443;BME280;21561;55.654;37.592;2022-07-29T09:33:36;99353.31;;;20.82;48.22
35443;BME280;21561;55.654;37.592;2022-07-29T09:36:07;99365.34;;;21.04;47.71
35443;BME280;21561;55.654;37.592;2022-07-29T09:38:35;99361.44;;;21.11;47.90
35443;BME280;21561;55.654;37.592;2022-07-29T09:41:04;99338.44;;;20.97;47.62
35443;BME280;21561;55.654;37.592;2022-07-29T09:43:33;99378.00;;;20.97;47.95
35443;BME280;21561;55.654;37.592;2022-07-29T09:46:13;99322.09;;;21.06;47.04
35443;BME280;21561;55.654;37.592;2022-07-29T09:48:40;99312.31;;;21.08;46.42
35443;BME280;21561;55.654;37.592;2022-07-29T09:51:20;99261.41;;;21.22;45.49
35443;BME280;21561;55.654;37.592;2022-07-29T09:54:26;99241.41;;;21.34;44.38
35443;BME280;21561;55.654;37.592;2022-07-29T09:56:55;99227.59;;;21.45;43.92
35443;BME280;21561;55.654;37.592;2022-07-29T09:59:22;99199.47;;;21.44;43.46
35443;BME280;21561;55.654;37.592;2022-07-29T10:01:52;99223.31;;;21.42;43.84
35443;BME280;21561;55.654;37.592;2022-07-29T10:04:20;99190.50;;;21.32;43.63
35443;BME280;21561;55.654;37.592;2022-07-29T10:06:59;99201.88;;;21.48;43.39
35443;BME280;21561;55.654;37.592;2022-07-29T10:09:31;99197.50;;;21.78;43.24
35443;BME280;21561;55.654;37.592;2022-07-29T10:12:09;99178.53;;;22.14;42.81
35443;BME280;21561;55.654;37.592;2022-07-29T10:14:37;99174.28;;;22.11;42.97
35443;BME280;21561;55.654;37.592;2022-07-29T10:17:06;99157.56;;;22.54;42.29
35443;BME280;21561;55.654;37.592;2022-07-29T10:19:35;99112.38;;;22.57;42.25
35443;BME280;21561;55.654;37.592;2022-07-29T10:22:07;99127.47;;;22.42;42.18
35443;BME280;21561;55.654;37.592;2022-07-29T10:24:35;99168.63;;;22.18;42.57
35443;BME280;21561;55.654;37.592;2022-07-29T10:27:06;99186.19;;;22.19;42.53
35443;BME280;21561;55.654;37.592;2022-07-29T10:29:33;99108.50;;;22.36;40.42
35443;BME280;21561;55.654;37.592;2022-07-29T10:32:40;98989.41;;;23.67;38.63
35443;BME280;21561;55.654;37.592;2022-07-29T10:38:34;98783.13;;;25.98;34.79
35443;BME280;21561;55.654;37.592;2022-07-29T10:41:39;98675.13;;;26.28;32.50
35443;BME280;21561;55.654;37.592;2022-07-29T10:44:13;98650.69;;;26.54;32.37
35443;BME280;21561;55.654;37.592;2022-07-29T10:46:45;98644.47;;;26.74;31.62
35443;BME280;21561;55.654;37.592;2022-07-29T10:54:17;98652.06;;;27.08;32.16
35443;BME280;21561;55.654;37.592;2022-07-29T10:56:45;98639.78;;;26.57;32.71
35443;BME280;21561;55.654;37.592;2022-07-29T11:01:49;98731.56;;;25.47;34.05
35443;BME280;21561;55.654;37.592;2022-07-29T11:07:10;98825.09;;;24.62;34.27
35443;BME280;21561;55.654;37.592;2022-07-29T11:09:38;98804.16;;;25.37;33.53
35443;BME280;21561;55.654;37.592;2022-07-29T11:12:45;98794.06;;;26.26;33.65
35443;BME280;21561;55.654;37.592;2022-07-29T11:15:16;98727.78;;;26.65;32.50
35443;BME280;21561;55.654;37.592;2022-07-29T11:20:45;98642.63;;;28.83;30.39
35443;BME280;21561;55.654;37.592;2022-07-29T11:23:33;98627.16;;;29.23;29.11
35443;BME280;21561;55.654;37.592;2022-07-29T11:31:41;98636.69;;;27.69;30.70
35443;BME280;21561;55.654;37.592;2022-07-29T11:34:22;98678.66;;;26.38;32.85
35443;BME280;21561;55.654;37.592;2022-07-29T11:39:40;98807.50;;;24.61;35.02
35443;BME280;21561;55.654;37.592;2022-07-29T11:48:00;98932.56;;;25.36;35.58
35443;BME280;21561;55.654;37.592;2022-07-29T11:50:47;98912.03;;;25.92;34.56
35443;BME280;21561;55.654;37.592;2022-07-29T11:53:15;98896.94;;;25.93;34.90
35443;BME280;21561;55.654;37.592;2022-07-29T11:55:42;98894.13;;;25.62;35.21
35443;BME280;21561;55.654;37.592;2022-07-29T11:58:21;98914.72;;;25.38;35.42
35443;BME280;21561;55.654;37.592;2022-07-29T12:01:16;98924.09;;;24.74;36.04
35443;BME280;21561;55.654;37.592;2022-07-29T12:03:44;98944.00;;;24.09;36.36
35443;BME280;21561;55.654;37.592;2022-07-29T12:06:12;98987.75;;;23.77;37.60
35443;BME280;21561;55.654;37.592;2022-07-29T12:08:41;99041.53;;;23.54;38.10
35443;BME280;21561;55.654;37.592;2022-07-29T12:11:17;99062.81;;;23.39;38.52
35443;BME280;21561;55.654;37.592;2022-07-29T12:13:46;99073.81;;;23.59;38.41
35443;BME280;21561;55.654;37.592;2022-07-29T12:16:15;99069.88;;;24.27;37.43
35443;BME280;21561;55.654;37.592;2022-07-29T12:18:59;99033.38;;;24.31;37.13
35443;BME280;21561;55.654;37.592;2022-07-29T12:21:47;99034.50;;;24.15;37.76
35443;BME280;21561;55.654;37.592;2022-07-29T12:24:22;99044.66;;;24.22;37.50
35443;BME280;21561;55.654;37.592;2022-07-29T12:26:59;99040.59;;;24.29;37.29
35443;BME280;21561;55.654;37.592;2022-07-29T12:29:28;99042.75;;;24.24;37.54
35443;BME280;21561;55.654;37.592;2022-07-29T12:32:02;99034.16;;;25.15;35.99
35443;BME280;21561;55.654;37.592;2022-07-29T12:34:31;98954.38;;;26.38;33.48
35443;BME280;21561;55.654;37.592;2022-07-29T12:36:58;98823.16;;;26.70;32.22
35443;BME280;21561;55.654;37.592;2022-07-29T12:39:25;98799.97;;;27.51;31.46
35443;BME280;21561;55.654;37.592;2022-07-29T12:41:54;98739.13;;;27.37;31.54
35443;BME280;21561;55.654;37.592;2022-07-29T12:44:50;98764.16;;;27.24;32.84
35443;BME280;21561;55.654;37.592;2022-07-29T12:47:19;98813.31;;;26.39;33.56
35443;BME280;21561;55.654;37.592;2022-07-29T12:49:47;98836.03;;;26.01;34.37
35443;BME280;21561;55.654;37.592;2022-07-29T12:52:28;98868.66;;;25.60;34.87
35443;BME280;21561;55.654;37.592;2022-07-29T12:54:56;98916.13;;;24.63;36.22
35443;BME280;21561;55.654;37.592;2022-07-29T12:57:23;98935.81;;;24.47;36.22
35443;BME280;21561;55.654;37.592;2022-07-29T13:00:02;98957.31;;;25.47;35.69
35443;BME280;21561;55.654;37.592;2022-07-29T13:02:30;98904.38;;;26.10;33.86
35443;BME280;21561;55.654;37.592;2022-07-29T13:04:59;98841.56;;;26.09;33.32
35443;BME280;21561;55.654;37.592;2022-07-29T13:07:31;98860.06;;;25.67;34.28
35443;BME280;21561;55.654;37.592;2022-07-29T13:10:20;98877.56;;;25.04;35.56
35443;BME280;21561;55.654;37.592;2022-07-29T13:13:03;98921.69;;;25.50;35.40
35443;BME280;21561;55.654;37.592;2022-07-29T13:15:30;98934.91;;;25.72;35.43
35443;BME280;21561;55.654;37.592;2022-07-29T13:17:58;98899.47;;;25.51;34.46
35443;BME280;21561;55.654;37.592;2022-07-29T13:20:28;98915.00;;;25.67;34.62
35443;BME280;21561;55.654;37.592;2022-07-29T13:22:59;98881.81;;;26.05;34.05
35443;BME280;21561;55.654;37.592;2022-07-29T13:25:29;98828.94;;;26.84;32.50
35443;BME280;21561;55.654;37.592;2022-07-29T13:27:58;98768.28;;;27.68;31.59
35443;BME280;21561;55.654;37.592;2022-07-29T13:30:25;98704.16;;;28.26;31.01
35443;BME280;21561;55.654;37.592;2022-07-29T13:32:52;98661.50;;;29.18;28.79
35443;BME280;21561;55.654;37.592;2022-07-29T13:35:19;98573.59;;;29.59;28.54
35443;BME280;21561;55.654;37.592;2022-07-29T13:37:47;98549.94;;;30.66;27.97
35443;BME280;21561;55.654;37.592;2022-07-29T13:40:17;98523.97;;;31.32;26.91
35443;BME280;21561;55.654;37.592;2022-07-29T13:42:44;98459.44;;;31.42;26.24
35443;BME280;21561;55.654;37.592;2022-07-29T13:45:12;98393.81;;;31.37;25.66
35443;BME280;21561;55.654;37.592;2022-07-29T13:47:39;98405.50;;;32.07;25.05
35443;BME280;21561;55.654;37.592;2022-07-29T13:50:13;98328.34;;;31.63;25.24
35443;BME280;21561;55.654;37.592;2022-07-29T13:52:40;98339.88;;;31.32;26.17
35443;BME280;21561;55.654;37.592;2022-07-29T13:55:07;98380.91;;;30.77;26.74